Time;durP1;ratioP1;P1;durP2;ratioP2;P2;SDS_P1;SDS_P2;PMS_P1;PMS_P2;Temp;Humidity;BMP_temperature;BMP_pressure;BME280_temperature;BME280_humidity;BME280_pressure;Samples;Min_cycle;Max_cycle;Signal;HPM_P1;HPM_P2
2023/03/20 00:02:18;;;;;;;;;;;9.30;99.90;;;;;;8382648;28;19931;-69
2023/03/20 00:06:21;;;;;;;;;;;9.20;99.90;;;;;;8366353;28;19924;-68
2023/03/20 00:10:25;;;;;;;;;;;9.20;99.90;;;;;;8383996;28;19931;-69
2023/03/20 00:14:27;;;;;;;;;;;9.20;99.90;;;;;;8371411;28;19932;-68
2023/03/20 00:18:29;;;;;;;;;;;9.10;99.90;;;;;;8384466;28;19929;-68
2023/03/20 00:22:31;;;;;;;;;;;9.00;99.90;;;;;;8379774;28;20091;-68
2023/03/20 00:26:35;;;;;;;;;;;9.00;99.90;;;;;;8383110;28;19928;-68
2023/03/20 00:30:37;;;;;;;;;;;9.00;99.90;;;;;;8369243;28;20396;-68
2023/03/20 00:34:39;;;;;;;;;;;9.00;99.90;;;;;;8387102;28;19929;-68
2023/03/20 00:38:40;;;;;;;;;;;9.00;99.90;;;;;;8388100;28;19935;-69
2023/03/20 00:42:44;;;;;;;;;;;9.00;99.90;;;;;;8374652;28;19931;-68
2023/03/20 00:46:47;;;;;;;;;;;9.00;99.90;;;;;;8387489;28;20365;-68
2023/03/20 00:50:49;;;;;;;;;;;8.90;99.90;;;;;;8400249;28;19928;-69
2023/03/20 00:54:51;;;;;;;;;;;8.90;99.90;;;;;;8383122;28;19984;-68
2023/03/20 00:58:52;;;;;;;;;;;8.90;99.90;;;;;;8381243;28;20299;-69
2023/03/20 01:02:55;;;;;;;;;;;8.90;99.90;;;;;;8373673;28;20271;-68
2023/03/20 01:06:57;;;;;;;;;;;8.90;99.90;;;;;;8386135;28;19936;-68
2023/03/20 01:10:58;;;;;;;;;;;8.90;99.90;;;;;;8380303;28;19977;-68
2023/03/20 01:15:00;;;;;;;;;;;8.90;99.90;;;;;;8379122;28;19925;-68
2023/03/20 01:19:02;;;;;;;;;;;8.90;99.90;;;;;;8379944;28;19931;-68
2023/03/20 01:23:04;;;;;;;;;;;8.90;99.90;;;;;;8360414;28;19925;-68
2023/03/20 01:27:13;;;;;;;;;;;8.80;99.90;;;;;;8398387;28;20415;-68
2023/03/20 01:31:15;;;;;;;;;;;8.80;99.90;;;;;;8382360;28;20065;-68
2023/03/20 01:35:19;;;;;;;;;;;8.80;99.90;;;;;;8388342;28;20334;-68
2023/03/20 01:39:25;;;;;;;;;;;8.80;99.90;;;;;;8369980;28;19930;-68
2023/03/20 01:43:27;;;;;;;;;;;8.80;99.90;;;;;;8379600;28;19928;-69
2023/03/20 01:47:29;;;;;;;;;;;8.80;99.90;;;;;;8384604;28;19940;-68
2023/03/20 01:51:31;;;;;;;;;;;8.70;99.90;;;;;;8385127;28;19936;-69
2023/03/20 01:55:34;;;;;;;;;;;8.70;99.90;;;;;;8370601;28;19928;-69
2023/03/20 01:59:56;;;;;;;;;;;8.70;99.90;;;;;;8388428;28;19933;-68
2023/03/20 02:03:57;;;;;;;;;;;8.60;99.90;;;;;;8360033;28;19951;-68
2023/03/20 02:08:14;;;;;;;;;;;8.50;99.90;;;;;;8373440;28;19936;-68
2023/03/20 02:12:16;;;;;;;;;;;8.50;99.90;;;;;;8378429;28;19924;-68
2023/03/20 02:16:19;;;;;;;;;;;8.40;99.90;;;;;;8394026;28;20407;-68
2023/03/20 02:20:29;;;;;;;;;;;8.40;99.90;;;;;;8399969;28;20325;-68
2023/03/20 02:24:54;;;;;;;;;;;8.40;99.90;;;;;;8387235;28;19939;-68
2023/03/20 02:28:58;;;;;;;;;;;8.40;99.90;;;;;;8392690;28;20352;-69
2023/03/20 02:33:00;;;;;;;;;;;8.30;99.90;;;;;;8387318;28;19975;-68
2023/03/20 02:37:11;;;;;;;;;;;8.30;99.90;;;;;;8394374;28;20433;-68
2023/03/20 02:41:25;;;;;;;;;;;8.30;99.90;;;;;;8386184;28;19925;-68
2023/03/20 02:45:30;;;;;;;;;;;8.30;99.90;;;;;;8383820;28;19990;-68
2023/03/20 02:49:50;;;;;;;;;;;8.20;99.90;;;;;;8386259;28;20051;-68
2023/03/20 02:53:57;;;;;;;;;;;8.20;99.90;;;;;;8383545;28;21629;-68
2023/03/20 02:58:02;;;;;;;;;;;8.20;99.90;;;;;;8383602;28;19939;-68
2023/03/20 03:02:27;;;;;;;;;;;8.10;99.90;;;;;;8396395;28;19931;-68
2023/03/20 03:06:30;;;;;;;;;;;8.10;99.90;;;;;;8397452;28;19931;-68
2023/03/20 03:10:36;;;;;;;;;;;8.10;99.90;;;;;;8382750;28;19924;-68
2023/03/20 03:14:40;;;;;;;;;;;8.10;99.90;;;;;;8379196;28;19925;-69
2023/03/20 03:18:42;;;;;;;;;;;8.00;99.90;;;;;;8394775;28;20024;-69
2023/03/20 03:22:44;;;;;;;;;;;8.00;99.90;;;;;;8372206;28;20296;-69
2023/03/20 03:26:46;;;;;;;;;;;7.90;99.90;;;;;;8366636;28;19935;-69
2023/03/20 03:30:49;;;;;;;;;;;7.80;99.90;;;;;;8379071;28;20046;-69
2023/03/20 03:34:50;;;;;;;;;;;7.80;99.90;;;;;;8386209;28;19924;-68
2023/03/20 03:39:10;;;;;;;;;;;7.70;99.90;;;;;;8385883;28;19975;-68
2023/03/20 03:43:15;;;;;;;;;;;7.60;99.90;;;;;;8381824;28;19939;-68
2023/03/20 03:47:32;;;;;;;;;;;7.60;99.90;;;;;;8380363;28;19924;-69
2023/03/20 03:51:34;;;;;;;;;;;7.50;99.90;;;;;;8389622;28;19971;-69
2023/03/20 03:55:40;;;;;;;;;;;7.50;99.90;;;;;;8365277;28;19956;-69
2023/03/20 03:59:44;;;;;;;;;;;7.50;99.90;;;;;;8391048;28;19928;-68
2023/03/20 04:03:49;;;;;;;;;;;7.40;99.90;;;;;;8379855;28;19929;-68
2023/03/20 04:07:55;;;;;;;;;;;7.40;99.90;;;;;;8385012;28;20371;-69
2023/03/20 04:11:56;;;;;;;;;;;7.40;99.90;;;;;;8383219;28;19986;-68
2023/03/20 04:15:58;;;;;;;;;;;7.30;99.90;;;;;;8384919;28;20339;-68
2023/03/20 04:20:00;;;;;;;;;;;7.30;99.90;;;;;;8378794;28;19928;-68
2023/03/20 04:24:01;;;;;;;;;;;7.40;99.90;;;;;;8380133;28;20030;-69
2023/03/20 04:28:03;;;;;;;;;;;7.40;99.90;;;;;;8386796;28;19931;-69
2023/03/20 04:32:06;;;;;;;;;;;7.40;99.90;;;;;;8383922;28;19924;-68
2023/03/20 04:36:08;;;;;;;;;;;7.30;99.90;;;;;;8385341;28;20299;-68
2023/03/20 04:40:10;;;;;;;;;;;7.30;99.90;;;;;;8376426;28;20408;-69
2023/03/20 04:49:22;;;;;;;;;;;7.30;99.90;;;;;;8374865;28;19946;-69
2023/03/20 04:53:24;;;;;;;;;;;7.30;99.90;;;;;;8371673;28;19948;-68
2023/03/20 04:57:27;;;;;;;;;;;7.30;99.90;;;;;;8383401;28;19932;-68
2023/03/20 05:01:29;;;;;;;;;;;7.30;99.90;;;;;;8379142;28;19930;-68
2023/03/20 05:05:32;;;;;;;;;;;7.30;99.90;;;;;;8391652;28;19946;-68
2023/03/20 05:09:34;;;;;;;;;;;7.30;99.90;;;;;;8382670;28;20626;-69
2023/03/20 05:13:35;;;;;;;;;;;7.30;99.90;;;;;;8379544;28;19933;-69
2023/03/20 05:17:37;;;;;;;;;;;7.30;99.90;;;;;;8383861;28;20422;-68
2023/03/20 05:21:39;;;;;;;;;;;7.30;99.90;;;;;;8391400;28;19971;-69
2023/03/20 05:25:40;;;;;;;;;;;7.30;99.90;;;;;;8368861;28;19939;-69
2023/03/20 05:29:42;;;;;;;;;;;7.30;99.90;;;;;;8384193;28;19928;-68
2023/03/20 05:33:43;;;;;;;;;;;7.30;99.90;;;;;;8388635;28;20408;-69
2023/03/20 05:37:45;;;;;;;;;;;7.30;99.90;;;;;;8377807;28;19980;-68
2023/03/20 05:41:47;;;;;;;;;;;7.30;99.90;;;;;;8347445;28;19939;-68
2023/03/20 05:45:48;;;;;;;;;;;7.30;99.90;;;;;;8380824;28;19924;-68
2023/03/20 05:49:50;;;;;;;;;;;7.30;99.90;;;;;;8378224;28;19947;-69
2023/03/20 05:53:52;;;;;;;;;;;7.30;99.90;;;;;;8395732;28;19971;-69
2023/03/20 05:57:53;;;;;;;;;;;7.30;99.90;;;;;;8357523;28;20011;-68
2023/03/20 06:01:55;;;;;;;;;;;7.30;99.90;;;;;;8384639;28;19936;-69
2023/03/20 06:05:56;;;;;;;;;;;7.30;99.90;;;;;;8384954;28;20389;-68
2023/03/20 06:09:58;;;;;;;;;;;7.30;99.90;;;;;;8381607;28;20297;-69
2023/03/20 06:14:00;;;;;;;;;;;7.30;99.90;;;;;;8385458;28;19939;-69
2023/03/20 06:18:02;;;;;;;;;;;7.30;99.90;;;;;;8369173;28;20407;-69
2023/03/20 06:22:04;;;;;;;;;;;7.40;99.90;;;;;;8381046;28;20398;-69
2023/03/20 06:26:05;;;;;;;;;;;7.30;99.90;;;;;;8381641;28;20402;-69
2023/03/20 06:30:08;;;;;;;;;;;7.30;99.90;;;;;;8382358;28;19968;-69
2023/03/20 06:34:09;;;;;;;;;;;7.30;99.90;;;;;;8377865;28;20015;-69
2023/03/20 06:38:11;;;;;;;;;;;7.30;99.90;;;;;;8381226;28;19925;-68
2023/03/20 06:42:13;;;;;;;;;;;7.30;99.90;;;;;;8384136;28;19944;-69
2023/03/20 06:46:16;;;;;;;;;;;7.30;99.90;;;;;;8393976;28;19933;-69
2023/03/20 06:50:18;;;;;;;;;;;7.30;99.90;;;;;;8382596;28;19924;-69
2023/03/20 06:54:20;;;;;;;;;;;7.30;99.90;;;;;;8372074;28;19935;-69
2023/03/20 06:58:21;;;;;;;;;;;7.30;99.90;;;;;;8392345;28;20023;-69
2023/03/20 07:02:23;;;;;;;;;;;7.30;99.90;;;;;;8389569;28;19960;-69
2023/03/20 07:06:25;;;;;;;;;;;7.30;99.90;;;;;;8393629;28;19932;-69
2023/03/20 07:10:27;;;;;;;;;;;7.30;99.90;;;;;;8390021;28;19928;-69
2023/03/20 07:14:29;;;;;;;;;;;7.30;99.90;;;;;;8385040;28;19995;-69
2023/03/20 07:18:30;;;;;;;;;;;7.40;99.90;;;;;;8390990;28;19932;-68
2023/03/20 07:22:32;;;;;;;;;;;7.40;99.90;;;;;;8375825;28;20348;-69
2023/03/20 07:26:34;;;;;;;;;;;7.40;99.90;;;;;;8370806;28;20372;-69
2023/03/20 07:30:36;;;;;;;;;;;7.40;99.90;;;;;;8390921;28;19924;-69
2023/03/20 07:34:37;;;;;;;;;;;7.50;99.90;;;;;;8386839;28;19963;-69
2023/03/20 07:38:39;;;;;;;;;;;7.50;99.90;;;;;;8395248;28;19925;-69
2023/03/20 07:42:41;;;;;;;;;;;7.50;99.90;;;;;;8386511;28;19928;-69
2023/03/20 07:46:43;;;;;;;;;;;7.50;99.90;;;;;;8383775;28;20258;-69
2023/03/20 07:50:44;;;;;;;;;;;7.60;99.90;;;;;;8381869;28;20395;-69
2023/03/20 07:54:46;;;;;;;;;;;7.60;99.90;;;;;;8375386;28;19924;-69
2023/03/20 07:58:48;;;;;;;;;;;7.60;99.90;;;;;;8369193;28;19928;-69
2023/03/20 08:02:49;;;;;;;;;;;7.70;99.90;;;;;;8389085;28;19924;-69
2023/03/20 08:06:51;;;;;;;;;;;7.70;99.90;;;;;;8389069;28;19939;-69
2023/03/20 08:10:53;;;;;;;;;;;7.80;99.90;;;;;;8386489;28;19925;-69
2023/03/20 08:14:54;;;;;;;;;;;7.80;99.90;;;;;;8388264;28;20269;-69
2023/03/20 08:19:00;;;;;;;;;;;7.80;99.90;;;;;;8390631;28;19925;-69
2023/03/20 08:23:01;;;;;;;;;;;7.90;99.90;;;;;;8383121;28;20027;-69
2023/03/20 08:27:03;;;;;;;;;;;7.90;99.90;;;;;;8385421;28;19925;-69
2023/03/20 08:31:08;;;;;;;;;;;8.00;99.90;;;;;;8371949;28;19945;-69
2023/03/20 08:35:10;;;;;;;;;;;8.10;99.90;;;;;;8387463;28;19925;-69
2023/03/20 08:39:31;;;;;;;;;;;8.10;99.90;;;;;;8383969;28;19924;-69
2023/03/20 08:43:33;;;;;;;;;;;8.10;99.90;;;;;;8384795;28;20349;-69
2023/03/20 08:47:35;;;;;;;;;;;8.20;99.90;;;;;;8392111;28;20287;-69
2023/03/20 08:51:36;;;;;;;;;;;8.10;99.90;;;;;;8391027;28;20007;-69
2023/03/20 08:55:38;;;;;;;;;;;8.10;99.90;;;;;;8369199;28;19931;-69
2023/03/20 08:59:40;;;;;;;;;;;8.10;99.90;;;;;;8391260;28;19931;-69
2023/03/20 09:03:41;;;;;;;;;;;8.20;99.90;;;;;;8382028;28;19936;-69
2023/03/20 09:07:43;;;;;;;;;;;8.10;99.90;;;;;;8366408;28;19947;-69
2023/03/20 09:11:45;;;;;;;;;;;8.10;99.90;;;;;;8385067;28;19928;-69
2023/03/20 09:15:47;;;;;;;;;;;8.00;99.90;;;;;;8381324;28;20436;-69
2023/03/20 09:19:48;;;;;;;;;;;8.00;99.90;;;;;;8377913;28;19925;-69
2023/03/20 09:23:50;;;;;;;;;;;8.00;99.90;;;;;;8392948;28;19936;-69
2023/03/20 09:27:54;;;;;;;;;;;8.00;99.90;;;;;;8384944;28;19987;-69
2023/03/20 09:31:55;;;;;;;;;;;8.00;99.90;;;;;;8379097;28;19991;-69
2023/03/20 09:35:57;;;;;;;;;;;8.00;99.90;;;;;;8388355;28;19971;-68
2023/03/20 09:39:59;;;;;;;;;;;8.10;99.90;;;;;;8375830;28;20369;-69
2023/03/20 09:44:07;;;;;;;;;;;8.10;99.90;;;;;;8386829;28;20295;-69
2023/03/20 09:48:21;;;;;;;;;;;8.20;99.90;;;;;;8385333;28;19928;-68
2023/03/20 09:52:27;;;;;;;;;;;8.20;99.90;;;;;;8381857;28;19931;-68
2023/03/20 09:56:29;;;;;;;;;;;8.20;99.90;;;;;;8382075;28;19932;-69
2023/03/20 10:00:33;;;;;;;;;;;8.30;99.90;;;;;;8380789;28;20014;-68
2023/03/20 10:04:35;;;;;;;;;;;8.30;99.90;;;;;;8372615;28;19924;-69
2023/03/20 10:08:38;;;;;;;;;;;8.40;99.90;;;;;;8398132;28;19963;-69
2023/03/20 10:12:46;;;;;;;;;;;8.50;99.90;;;;;;8369541;28;19968;-69
2023/03/20 10:17:05;;;;;;;;;;;8.60;99.90;;;;;;8389316;28;19964;-69
2023/03/20 10:21:14;;;;;;;;;;;8.70;99.90;;;;;;8389208;28;19925;-68
2023/03/20 10:25:22;;;;;;;;;;;8.70;99.90;;;;;;8387519;28;20232;-69
2023/03/20 10:29:27;;;;;;;;;;;8.70;99.90;;;;;;8389938;28;19932;-69
2023/03/20 10:33:38;;;;;;;;;;;8.80;99.90;;;;;;8389900;28;19925;-69
2023/03/20 10:37:52;;;;;;;;;;;8.90;99.90;;;;;;8393083;28;19924;-68
2023/03/20 10:41:55;;;;;;;;;;;8.90;99.90;;;;;;8384588;28;19925;-68
2023/03/20 10:46:03;;;;;;;;;;;8.90;99.90;;;;;;8375989;28;19928;-69
2023/03/20 10:50:06;;;;;;;;;;;9.00;99.90;;;;;;8374580;28;19924;-69
2023/03/20 10:54:29;;;;;;;;;;;9.00;99.90;;;;;;8389268;28;19924;-68
2023/03/20 10:58:32;;;;;;;;;;;9.10;99.90;;;;;;8391852;28;20015;-68
2023/03/20 11:02:35;;;;;;;;;;;9.00;99.90;;;;;;8387592;28;19947;-68
2023/03/20 11:06:50;;;;;;;;;;;9.00;99.90;;;;;;8372661;28;20023;-69
2023/03/20 11:10:59;;;;;;;;;;;9.00;99.90;;;;;;8388572;28;20440;-68
2023/03/20 11:15:15;;;;;;;;;;;9.10;99.90;;;;;;8386557;28;20380;-68
2023/03/20 11:19:18;;;;;;;;;;;9.10;99.90;;;;;;8389886;28;20395;-69
2023/03/20 11:23:23;;;;;;;;;;;9.00;99.90;;;;;;8388935;28;19925;-69
2023/03/20 11:27:26;;;;;;;;;;;9.00;99.90;;;;;;8391798;28;20431;-68
2023/03/20 11:31:31;;;;;;;;;;;9.00;99.90;;;;;;8386758;28;19925;-69
2023/03/20 11:35:34;;;;;;;;;;;9.10;99.90;;;;;;8388303;28;19977;-68
2023/03/20 11:39:38;;;;;;;;;;;9.10;99.90;;;;;;8383210;28;19929;-69
2023/03/20 11:43:40;;;;;;;;;;;9.10;99.90;;;;;;8366244;28;19925;-69
2023/03/20 11:47:42;;;;;;;;;;;9.20;99.90;;;;;;8357645;28;20031;-69
2023/03/20 11:51:44;;;;;;;;;;;9.20;99.90;;;;;;8345842;28;20490;-68
2023/03/20 11:55:57;;;;;;;;;;;9.30;99.90;;;;;;8378989;28;20333;-69
2023/03/20 12:00:22;;;;;;;;;;;9.30;99.90;;;;;;8361607;28;19951;-69
2023/03/20 12:04:26;;;;;;;;;;;9.40;99.90;;;;;;8360612;28;19968;-69
2023/03/20 12:08:30;;;;;;;;;;;9.40;99.90;;;;;;8358242;28;19979;-69
2023/03/20 12:12:47;;;;;;;;;;;9.40;99.90;;;;;;8345032;28;19981;-69
2023/03/20 12:16:51;;;;;;;;;;;9.50;99.90;;;;;;8362496;28;19933;-69
2023/03/20 12:20:52;;;;;;;;;;;9.70;99.90;;;;;;8339750;28;19991;-68
2023/03/20 12:25:01;;;;;;;;;;;9.70;99.90;;;;;;8361385;28;19931;-69
2023/03/20 12:29:06;;;;;;;;;;;9.70;99.90;;;;;;8372129;28;20277;-69
2023/03/20 12:33:15;;;;;;;;;;;9.60;99.90;;;;;;8364095;28;20313;-69
2023/03/20 12:37:17;;;;;;;;;;;9.40;99.90;;;;;;8384938;28;19929;-68
2023/03/20 12:41:29;;;;;;;;;;;9.40;99.90;;;;;;8360971;28;19986;-68
2023/03/20 12:45:40;;;;;;;;;;;9.20;99.90;;;;;;8354188;28;20391;-68
2023/03/20 12:50:00;;;;;;;;;;;9.20;99.90;;;;;;8354104;28;20368;-68
2023/03/20 12:54:08;;;;;;;;;;;9.10;99.90;;;;;;8359432;28;19963;-69
2023/03/20 12:58:19;;;;;;;;;;;9.10;99.90;;;;;;8381995;28;20396;-69
2023/03/20 13:02:29;;;;;;;;;;;9.00;99.90;;;;;;8354835;28;19932;-68
2023/03/20 13:06:31;;;;;;;;;;;9.00;99.90;;;;;;8359708;28;20389;-69
2023/03/20 13:10:40;;;;;;;;;;;9.00;99.90;;;;;;8357009;28;20292;-68
2023/03/20 13:15:00;;;;;;;;;;;9.10;99.90;;;;;;8358771;28;19931;-69
2023/03/20 13:19:24;;;;;;;;;;;9.00;99.90;;;;;;8354529;28;19939;-68
2023/03/20 13:23:30;;;;;;;;;;;9.00;99.90;;;;;;8360030;28;19943;-68
2023/03/20 13:27:41;;;;;;;;;;;9.00;99.90;;;;;;8337947;28;20287;-68
2023/03/20 13:31:48;;;;;;;;;;;9.10;99.90;;;;;;8352138;28;19932;-68
2023/03/20 13:35:57;;;;;;;;;;;9.10;99.90;;;;;;8354717;28;20002;-69
2023/03/20 13:40:04;;;;;;;;;;;9.10;99.90;;;;;;8358186;28;20310;-69
2023/03/20 13:44:08;;;;;;;;;;;9.10;99.90;;;;;;8360576;28;20022;-68
2023/03/20 13:48:32;;;;;;;;;;;9.10;99.90;;;;;;8354118;28;19972;-68
2023/03/20 13:52:36;;;;;;;;;;;9.10;99.90;;;;;;8354642;28;19929;-68
2023/03/20 13:56:46;;;;;;;;;;;9.10;99.90;;;;;;8358165;28;19967;-68
2023/03/20 14:00:58;;;;;;;;;;;9.00;99.90;;;;;;8355307;28;20327;-68
2023/03/20 14:05:03;;;;;;;;;;;9.00;99.90;;;;;;8352649;28;20277;-68
2023/03/20 14:09:23;;;;;;;;;;;8.90;99.90;;;;;;8354854;28;19933;-68
2023/03/20 14:13:24;;;;;;;;;;;8.90;99.90;;;;;;8348010;28;19924;-68
2023/03/20 14:17:29;;;;;;;;;;;8.90;99.90;;;;;;8360070;28;20265;-68
2023/03/20 14:21:32;;;;;;;;;;;8.90;99.90;;;;;;8352913;28;20269;-68
2023/03/20 14:25:38;;;;;;;;;;;8.90;99.90;;;;;;8353688;28;20474;-68
2023/03/20 14:29:41;;;;;;;;;;;8.90;99.90;;;;;;8353041;28;20355;-68
2023/03/20 14:33:43;;;;;;;;;;;8.90;99.90;;;;;;8355120;28;20017;-68
2023/03/20 14:38:03;;;;;;;;;;;8.90;99.90;;;;;;8355872;28;20302;-68
2023/03/20 14:42:11;;;;;;;;;;;8.80;99.90;;;;;;8336409;28;19943;-68
2023/03/20 14:46:33;;;;;;;;;;;8.80;99.90;;;;;;8367242;28;20203;-68
2023/03/20 14:51:01;;;;;;;;;;;8.80;99.90;;;;;;8351775;28;19928;-68
2023/03/20 14:55:18;;;;;;;;;;;8.80;99.90;;;;;;8336362;28;20287;-68
2023/03/20 14:59:21;;;;;;;;;;;8.80;99.90;;;;;;8368374;28;19929;-68
2023/03/20 15:03:23;;;;;;;;;;;8.80;99.90;;;;;;8351654;28;19968;-68
2023/03/20 15:07:29;;;;;;;;;;;8.80;99.90;;;;;;8343959;28;20020;-67
2023/03/20 15:11:32;;;;;;;;;;;8.90;99.90;;;;;;8360057;28;20071;-68
2023/03/20 15:15:33;;;;;;;;;;;8.90;99.90;;;;;;8361973;28;19925;-68
2023/03/20 15:19:38;;;;;;;;;;;8.90;99.90;;;;;;8361293;28;20282;-68
2023/03/20 15:23:40;;;;;;;;;;;8.90;99.90;;;;;;8363314;28;19936;-67
2023/03/20 15:27:42;;;;;;;;;;;8.90;99.90;;;;;;8358455;28;20292;-68
2023/03/20 15:31:43;;;;;;;;;;;8.90;99.90;;;;;;8357277;28;20043;-67
2023/03/20 15:35:45;;;;;;;;;;;8.90;99.90;;;;;;8359695;28;20376;-67
2023/03/20 15:39:48;;;;;;;;;;;8.90;99.90;;;;;;8355962;28;19924;-67
2023/03/20 15:43:50;;;;;;;;;;;8.90;99.90;;;;;;8354340;28;19924;-67
2023/03/20 15:48:05;;;;;;;;;;;8.90;99.90;;;;;;8355662;28;20049;-67
2023/03/20 15:52:12;;;;;;;;;;;8.90;99.90;;;;;;8358946;28;19936;-67
2023/03/20 15:56:16;;;;;;;;;;;8.90;99.90;;;;;;8359312;28;20043;-67
2023/03/20 16:00:24;;;;;;;;;;;8.90;99.90;;;;;;8358539;28;20019;-67
2023/03/20 16:04:26;;;;;;;;;;;8.90;99.90;;;;;;8359828;28;20432;-68
2023/03/20 16:08:29;;;;;;;;;;;9.00;99.90;;;;;;8339134;28;20506;-68
2023/03/20 16:12:31;;;;;;;;;;;9.00;99.90;;;;;;8354720;28;19925;-68
2023/03/20 16:16:36;;;;;;;;;;;9.00;99.90;;;;;;8357552;28;19999;-67
2023/03/20 16:20:40;;;;;;;;;;;9.00;99.90;;;;;;8361870;28;19932;-67
2023/03/20 16:24:44;;;;;;;;;;;9.00;99.90;;;;;;8340289;28;20032;-67
2023/03/20 16:28:48;;;;;;;;;;;9.00;99.90;;;;;;8355224;28;19932;-68
2023/03/20 16:32:53;;;;;;;;;;;9.10;99.90;;;;;;8338801;28;19928;-67
2023/03/20 16:36:57;;;;;;;;;;;9.10;99.90;;;;;;8360191;28;19958;-68
2023/03/20 16:41:17;;;;;;;;;;;9.10;99.90;;;;;;8355610;28;19924;-68
2023/03/20 16:45:23;;;;;;;;;;;9.10;99.90;;;;;;8358029;28;19924;-68
2023/03/20 16:49:28;;;;;;;;;;;9.10;99.90;;;;;;8345073;28;20368;-68
2023/03/20 16:53:35;;;;;;;;;;;9.10;99.90;;;;;;8355278;28;19928;-68
2023/03/20 16:57:37;;;;;;;;;;;9.10;99.90;;;;;;8352792;28;20023;-69
2023/03/20 17:01:40;;;;;;;;;;;9.10;99.90;;;;;;8354300;28;20388;-68
2023/03/20 17:06:09;;;;;;;;;;;9.10;99.90;;;;;;8353567;28;19963;-68
2023/03/20 17:10:14;;;;;;;;;;;9.20;99.90;;;;;;8349352;28;19925;-68
2023/03/20 17:14:16;;;;;;;;;;;9.20;99.90;;;;;;8354815;28;19964;-68
2023/03/20 17:18:17;;;;;;;;;;;9.20;99.90;;;;;;8335616;28;20257;-68
2023/03/20 17:22:21;;;;;;;;;;;9.20;99.90;;;;;;8355084;28;19924;-68
2023/03/20 17:26:22;;;;;;;;;;;9.20;99.90;;;;;;8371668;28;20388;-68
2023/03/20 17:30:24;;;;;;;;;;;9.20;99.90;;;;;;8350441;28;21407;-68
2023/03/20 17:34:26;;;;;;;;;;;9.20;99.90;;;;;;8337313;28;20013;-68
2023/03/20 17:38:27;;;;;;;;;;;9.20;99.90;;;;;;8355341;28;20014;-68
2023/03/20 17:42:30;;;;;;;;;;;9.20;99.90;;;;;;8353399;28;19983;-68
2023/03/20 17:46:32;;;;;;;;;;;9.30;99.90;;;;;;8356860;28;19983;-68
2023/03/20 17:50:49;;;;;;;;;;;9.30;99.90;;;;;;8354871;28;19932;-68
2023/03/20 17:54:51;;;;;;;;;;;9.30;99.90;;;;;;8353412;28;19932;-68
2023/03/20 17:58:53;;;;;;;;;;;9.30;99.90;;;;;;8351822;28;19929;-68
2023/03/20 18:02:54;;;;;;;;;;;9.30;99.90;;;;;;8353911;28;24571;-68
2023/03/20 18:06:56;;;;;;;;;;;9.30;99.90;;;;;;8359469;28;19936;-68
2023/03/20 18:10:58;;;;;;;;;;;9.30;99.90;;;;;;8348588;28;19937;-68
2023/03/20 18:15:00;;;;;;;;;;;9.30;99.90;;;;;;8376948;28;19946;-68
2023/03/20 18:19:02;;;;;;;;;;;9.40;99.90;;;;;;8351113;28;19928;-68
2023/03/20 18:23:05;;;;;;;;;;;9.40;99.90;;;;;;8367276;28;19972;-68
2023/03/20 18:27:06;;;;;;;;;;;9.40;99.90;;;;;;8349045;28;19925;-68
2023/03/20 18:31:09;;;;;;;;;;;9.40;99.90;;;;;;8366194;28;20323;-69
2023/03/20 18:35:11;;;;;;;;;;;9.40;99.90;;;;;;8352275;28;19929;-69
2023/03/20 18:39:20;;;;;;;;;;;9.40;99.90;;;;;;8358442;28;19925;-69
2023/03/20 18:43:22;;;;;;;;;;;9.40;99.90;;;;;;8359017;28;19924;-69
2023/03/20 18:47:24;;;;;;;;;;;9.50;99.90;;;;;;8360598;28;19935;-69
2023/03/20 18:51:25;;;;;;;;;;;9.50;99.90;;;;;;8360991;28;20276;-69
2023/03/20 18:55:27;;;;;;;;;;;9.50;99.90;;;;;;8359765;28;19960;-69
2023/03/20 18:59:29;;;;;;;;;;;9.50;99.90;;;;;;8364587;28;19925;-69
2023/03/20 19:03:37;;;;;;;;;;;9.50;99.90;;;;;;8356472;28;19929;-69
2023/03/20 19:07:40;;;;;;;;;;;9.50;99.90;;;;;;8338432;28;20019;-69
2023/03/20 19:11:41;;;;;;;;;;;9.50;99.90;;;;;;8340262;28;19924;-69
2023/03/20 19:15:44;;;;;;;;;;;9.50;99.90;;;;;;8351965;28;20007;-69
2023/03/20 19:19:46;;;;;;;;;;;9.50;99.90;;;;;;8354848;28;19945;-69
2023/03/20 19:23:47;;;;;;;;;;;9.50;99.90;;;;;;8350431;28;19928;-68
2023/03/20 19:27:49;;;;;;;;;;;9.60;99.90;;;;;;8353051;28;19967;-68
2023/03/20 19:31:50;;;;;;;;;;;9.60;99.90;;;;;;8365599;28;20303;-68
2023/03/20 19:35:52;;;;;;;;;;;9.60;99.90;;;;;;8372072;28;20038;-69
2023/03/20 19:40:23;;;;;;;;;;;9.60;99.90;;;;;;8355392;28;19951;-69
2023/03/20 19:44:25;;;;;;;;;;;9.60;99.90;;;;;;8345060;28;19983;-68
2023/03/20 19:48:31;;;;;;;;;;;9.60;99.90;;;;;;8359322;28;19932;-69
2023/03/20 19:52:50;;;;;;;;;;;9.60;99.90;;;;;;8344700;28;19925;-69
2023/03/20 19:56:52;;;;;;;;;;;9.70;99.90;;;;;;8359244;28;20308;-69
2023/03/20 20:00:54;;;;;;;;;;;9.70;99.90;;;;;;8354745;28;19924;-69
2023/03/20 20:05:25;;;;;;;;;;;9.70;99.90;;;;;;8357757;28;19975;-69
2023/03/20 20:09:27;;;;;;;;;;;9.70;99.90;;;;;;8371683;28;20023;-69
2023/03/20 20:13:31;;;;;;;;;;;9.70;99.90;;;;;;8356402;28;19940;-69
2023/03/20 20:17:33;;;;;;;;;;;9.80;99.90;;;;;;8361083;28;19968;-69
2023/03/20 20:21:34;;;;;;;;;;;9.80;99.90;;;;;;8366250;28;20470;-69
2023/03/20 20:25:57;;;;;;;;;;;9.80;99.90;;;;;;8362278;28;19932;-69
2023/03/20 20:29:59;;;;;;;;;;;9.80;99.90;;;;;;8355960;28;19933;-69
2023/03/20 20:34:00;;;;;;;;;;;9.80;99.90;;;;;;8356151;28;19925;-69
2023/03/20 20:38:22;;;;;;;;;;;9.80;99.90;;;;;;8360246;28;20321;-68
2023/03/20 20:42:50;;;;;;;;;;;9.80;99.90;;;;;;8359749;28;20288;-69
2023/03/20 20:46:51;;;;;;;;;;;9.90;99.90;;;;;;8372015;28;19928;-69
2023/03/20 20:50:59;;;;;;;;;;;9.90;99.90;;;;;;8371401;28;19936;-69
2023/03/20 20:55:01;;;;;;;;;;;9.90;99.90;;;;;;8354602;28;19925;-69
2023/03/20 20:59:21;;;;;;;;;;;9.80;99.90;;;;;;8354177;28;19935;-69
2023/03/20 21:03:23;;;;;;;;;;;9.90;99.90;;;;;;8352372;28;19936;-69
2023/03/20 21:07:25;;;;;;;;;;;9.90;99.90;;;;;;8354807;28;19929;-69
2023/03/20 21:11:27;;;;;;;;;;;9.90;99.90;;;;;;8370948;28;19935;-69
2023/03/20 21:15:29;;;;;;;;;;;9.90;99.90;;;;;;8358017;28;19951;-68
2023/03/20 21:19:41;;;;;;;;;;;9.90;99.90;;;;;;8358651;28;20380;-68
2023/03/20 21:23:42;;;;;;;;;;;9.90;99.90;;;;;;8353121;28;20284;-69
2023/03/20 21:27:44;;;;;;;;;;;9.90;99.90;;;;;;8356689;28;19932;-68
2023/03/20 21:31:46;;;;;;;;;;;9.90;99.90;;;;;;8336539;28;19939;-69
2023/03/20 21:35:49;;;;;;;;;;;9.90;99.90;;;;;;8366052;28;20273;-69
2023/03/20 21:39:51;;;;;;;;;;;9.90;99.90;;;;;;8355087;28;19960;-69
2023/03/20 21:43:52;;;;;;;;;;;9.90;99.90;;;;;;8353171;28;19925;-68
2023/03/20 21:47:54;;;;;;;;;;;9.90;99.90;;;;;;8357213;28;19982;-68
2023/03/20 21:52:17;;;;;;;;;;;9.90;99.90;;;;;;8355576;28;19933;-69
2023/03/20 21:56:39;;;;;;;;;;;9.90;99.90;;;;;;8353548;28;19943;-69
2023/03/20 22:01:01;;;;;;;;;;;9.90;99.90;;;;;;8356403;28;20412;-70
2023/03/20 22:05:22;;;;;;;;;;;9.90;99.90;;;;;;8366946;28;19983;-69
2023/03/20 22:09:44;;;;;;;;;;;9.90;99.90;;;;;;8368404;28;19933;-69
2023/03/20 22:14:05;;;;;;;;;;;9.80;99.90;;;;;;8375816;28;20008;-68
2023/03/20 22:18:27;;;;;;;;;;;9.80;99.90;;;;;;8378464;28;20317;-69
2023/03/20 22:22:49;;;;;;;;;;;9.80;99.90;;;;;;8391094;28;19928;-69
2023/03/20 22:27:11;;;;;;;;;;;9.80;99.90;;;;;;8383007;28;19931;-69
2023/03/20 22:31:33;;;;;;;;;;;9.80;99.90;;;;;;8393250;28;19924;-69
2023/03/20 22:35:54;;;;;;;;;;;9.80;99.90;;;;;;8391386;28;19928;-69
2023/03/20 22:40:16;;;;;;;;;;;9.80;99.90;;;;;;8380911;28;19970;-68
2023/03/20 22:44:38;;;;;;;;;;;9.80;99.90;;;;;;8393547;28;20429;-69
2023/03/20 22:48:59;;;;;;;;;;;9.80;99.90;;;;;;8399506;28;19925;-69
2023/03/20 22:53:01;;;;;;;;;;;9.80;99.90;;;;;;8398705;28;19924;-69
2023/03/20 22:57:03;;;;;;;;;;;9.80;99.90;;;;;;8370662;28;19940;-69
2023/03/20 23:01:04;;;;;;;;;;;9.80;99.90;;;;;;8379628;28;19925;-69
2023/03/20 23:05:07;;;;;;;;;;;9.80;99.90;;;;;;8378779;28;19928;-69
2023/03/20 23:09:09;;;;;;;;;;;9.80;99.90;;;;;;8370944;28;19936;-69
2023/03/20 23:13:16;;;;;;;;;;;9.80;99.90;;;;;;8374921;28;19924;-69
2023/03/20 23:17:18;;;;;;;;;;;9.80;99.90;;;;;;8387371;28;19931;-69
2023/03/20 23:21:20;;;;;;;;;;;9.80;99.90;;;;;;8369548;28;19932;-69
2023/03/20 23:25:21;;;;;;;;;;;9.80;99.90;;;;;;8390299;28;19925;-69
2023/03/20 23:29:38;;;;;;;;;;;9.80;99.90;;;;;;8377245;28;19968;-69
2023/03/20 23:33:41;;;;;;;;;;;9.70;99.90;;;;;;8385847;28;19968;-69
2023/03/20 23:37:42;;;;;;;;;;;9.70;99.90;;;;;;8383109;28;19928;-69
2023/03/20 23:41:44;;;;;;;;;;;9.70;99.90;;;;;;8372213;28;19961;-69
2023/03/20 23:46:06;;;;;;;;;;;9.70;99.90;;;;;;8371730;28;19928;-69
2023/03/20 23:50:08;;;;;;;;;;;9.70;99.90;;;;;;8383303;28;19937;-69
2023/03/20 23:54:12;;;;;;;;;;;9.70;99.90;;;;;;8376048;28;19938;-69
2023/03/20 23:58:14;;;;;;;;;;;9.70;99.90;;;;;;8391058;28;20365;-69
